Impacts TAF Board INFO
FOR SITUATIONAL AWARENESS. NOT TO BE USED FOR FLIGHT PLANNING PURPOSES.
IDs:

KCLE - Cleveland/Hopkins In, OH, US

Issued at 1740 UTC 16 Jan 2018
Updated at 1921 UTC 16 Jan 2018
Potential Impact None Slight Moderate High
Time1851Z 16/20Z 16/21Z 16/22Z 16/23Z 17/00Z 17/01Z 17/02Z 17/03Z 17/04Z 17/05Z 17/06Z 17/07Z 17/08Z>>
Type OBS PRVL PRVL PRVL PRVL PRVL PRVL PRVL PRVL PRVL PRVL PRVL PRVL PRVL
VIS 8 >6 >6 >6 >6 >6 >6 >6 >6 >6 >6 >6 >6 >6
CIG 28 -- -- -- -- -- -- -- -- -- -- -- -- --
Cover OVC SCT SCT SCT SCT SCT SCT SCT SCT SCT SCT SCT SCT SCT
FltCat MVFR VFR VFR VFR VFR VFR VFR VFR VFR VFR VFR VFR VFR VFR
WX -- -- -- -- -- -- -- -- -- -- -- -- -- --
WDir 210 220 220 220 220 220 220 220 220 220 220 220 220 220
WSpd 10 7 7 7 7 7 7 7 7 7 7 7 7 7
WGst -- -- -- -- -- -- -- -- -- -- -- -- -- --

Raw TAF
KCLE 161740Z 1618/1724 22007KT P6SM OVC025
  FM161900 22007KT P6SM SCT025
  FM171100 23006KT P6SM BKN015
  FM171400 23007KT P6SM SCT030
  FM172000 25011KT P6SM BKN100


Raw METAR
KCLE 161851Z 21010KT 8SM SCT022 OVC028 M11/M16 A3042 RMK AO2 SLP315 T11061156
KCLE 161751Z 21011KT 9SM OVC024 M12/M16 A3042 RMK AO2 SLP315 4/003 933005 60000 T11171161 11100 21139 58013
KCLE 161651Z 22007KT 9SM BKN022 M12/M17 A3044 RMK AO2 SLP322 T11171167

METAR Board
Radar Display
Forecast Discussion

FOR SITUATIONAL AWARENESS. NOT TO BE USED FOR FLIGHT PLANNING PURPOSES.